Time;durP1;ratioP1;P1;durP2;ratioP2;P2;SDS_P1;SDS_P2;PMS_P1;PMS_P2;Temp;Humidity;BMP_temperature;BMP_pressure;BME280_temperature;BME280_humidity;BME280_pressure;Samples;Min_cycle;Max_cycle;Signal;HPM_P1;HPM_P2
2021/04/19 00:02:16;;;;;;;36.72;18.83;;;;;;;6.81;77.55;102021.91;5104329;28;20031;-64
2021/04/19 00:04:41;;;;;;;39.78;19.77;;;;;;;6.51;79.07;102018.97;5104795;28;20031;-64
2021/04/19 00:07:08;;;;;;;39.35;19.27;;;;;;;6.51;78.91;102012.00;5105060;28;20439;-64
2021/04/19 00:09:34;;;;;;;41.50;20.33;;;;;;;6.50;78.78;102011.94;5103677;28;20063;-63
2021/04/19 00:12:00;;;;;;;40.47;20.83;;;;;;;6.43;79.62;102011.66;5105978;28;20103;-63
2021/04/19 00:14:25;;;;;;;39.40;20.45;;;;;;;6.34;79.72;102011.31;5102732;28;20099;-63
2021/04/19 00:16:51;;;;;;;41.20;19.23;;;;;;;6.33;79.38;102006.00;5106061;28;20018;-64
2021/04/19 00:19:16;;;;;;;39.45;21.08;;;;;;;6.30;79.45;102005.88;5103415;28;20024;-63
2021/04/19 00:21:41;;;;;;;41.67;20.33;;;;;;;6.28;79.62;102009.34;5104343;28;20115;-63
2021/04/19 00:24:07;;;;;;;38.80;19.08;;;;;;;6.32;79.27;102004.19;5104802;28;20024;-63
2021/04/19 00:26:32;;;;;;;39.67;21.20;;;;;;;6.22;80.09;102006.47;5102963;28;20482;-63
2021/04/19 00:28:58;;;;;;;44.28;20.13;;;;;;;6.26;79.64;102002.22;5106002;28;20470;-62
2021/04/19 00:31:23;;;;;;;39.33;20.98;;;;;;;6.11;80.32;101990.25;5102582;28;20031;-63
2021/04/19 00:33:48;;;;;;;38.60;20.27;;;;;;;6.06;80.11;101991.81;5104804;28;20478;-63
2021/04/19 00:36:14;;;;;;;39.58;21.42;;;;;;;5.98;81.01;101998.47;5102860;28;20092;-62
2021/04/19 00:38:39;;;;;;;44.88;22.42;;;;;;;5.87;81.75;101995.38;5103751;28;20028;-62
2021/04/19 00:41:06;;;;;;;38.20;19.50;;;;;;;5.87;81.34;101987.50;5104850;28;20123;-63
2021/04/19 00:43:31;;;;;;;38.25;20.13;;;;;;;5.97;81.29;101994.06;5102278;28;20027;-63
2021/04/19 00:46:02;;;;;;;40.67;20.90;;;;;;;5.97;80.14;101993.13;5105808;28;20027;-63
2021/04/19 00:48:30;;;;;;;39.85;20.50;;;;;;;5.94;80.26;101994.81;5098162;28;20028;-63
2021/04/19 00:50:56;;;;;;;41.47;20.50;;;;;;;5.94;80.60;101994.81;5098061;28;20044;-63
2021/04/19 00:53:24;;;;;;;37.25;20.02;;;;;;;5.92;80.08;101991.19;5104901;28;20378;-63
2021/04/19 00:55:50;;;;;;;38.03;20.15;;;;;;;5.93;79.69;101982.50;5102305;28;20035;-63
2021/04/19 00:58:17;;;;;;;38.25;21.38;;;;;;;5.82;80.16;101994.28;5104517;28;20451;-62
2021/04/19 01:00:43;;;;;;;38.45;21.70;;;;;;;5.70;81.02;101994.66;5103285;28;20027;-63
2021/04/19 01:03:08;;;;;;;40.72;22.80;;;;;;;5.49;82.94;101994.63;5102908;28;20051;-64
2021/04/19 01:05:36;;;;;;;41.38;22.33;;;;;;;5.31;84.66;101989.47;5104845;28;20031;-63
2021/04/19 01:08:03;;;;;;;42.45;22.98;;;;;;;5.18;86.10;101993.25;5102220;28;20024;-63
2021/04/19 01:10:29;;;;;;;41.33;22.10;;;;;;;5.22;84.94;101989.06;5105012;28;20024;-63
2021/04/19 01:12:54;;;;;;;39.70;22.00;;;;;;;5.18;84.36;101995.88;5097512;28;20031;-63
2021/04/19 01:15:20;;;;;;;44.60;23.27;;;;;;;5.14;86.58;101991.34;5104354;28;20028;-63
2021/04/19 01:17:46;;;;;;;40.72;22.85;;;;;;;5.12;86.22;101987.75;5102536;28;20153;-63
2021/04/19 01:20:16;;;;;;;42.90;23.75;;;;;;;5.04;86.92;101994.41;5103584;28;20390;-63
2021/04/19 01:22:43;;;;;;;41.13;23.20;;;;;;;5.11;85.28;101985.97;5103069;28;20115;-63
2021/04/19 01:25:13;;;;;;;42.67;23.17;;;;;;;5.07;85.72;101984.03;5102586;28;20027;-63
2021/04/19 01:27:39;;;;;;;43.80;23.02;;;;;;;5.05;85.60;101981.34;5103757;28;20023;-63
2021/04/19 01:30:06;;;;;;;40.10;23.27;;;;;;;5.07;85.21;101990.16;5101938;28;20122;-63
2021/04/19 01:32:31;;;;;;;41.85;23.35;;;;;;;5.11;85.05;101987.69;5104181;28;20038;-63
2021/04/19 01:34:57;;;;;;;43.72;22.67;;;;;;;5.09;84.61;101987.63;5101613;28;20024;-63
2021/04/19 01:37:22;;;;;;;44.97;24.13;;;;;;;5.05;84.69;101989.22;5104391;28;20035;-63
2021/04/19 01:39:47;;;;;;;39.03;22.63;;;;;;;4.96;85.83;101988.78;5102026;28;20076;-63
2021/04/19 01:42:13;;;;;;;42.88;24.20;;;;;;;4.89;86.47;101977.16;5103300;28;20020;-63
2021/04/19 01:44:38;;;;;;;39.75;22.10;;;;;;;4.85;86.04;101975.22;5103165;28;20043;-63
2021/04/19 01:47:04;;;;;;;44.60;25.38;;;;;;;4.69;89.40;101980.56;5106328;28;20107;-63
2021/04/19 01:49:31;;;;;;;44.10;25.05;;;;;;;4.57;89.73;101979.97;5111691;27;20092;-63
2021/04/19 01:51:57;;;;;;;41.15;24.67;;;;;;;4.49;89.97;101972.66;5106538;28;20043;-63
2021/04/19 01:54:23;;;;;;;43.83;25.35;;;;;;;4.39;90.42;101980.03;5111115;28;20035;-63
2021/04/19 01:56:48;;;;;;;45.53;25.42;;;;;;;4.33;90.99;101975.38;5109115;27;20027;-63
2021/04/19 01:59:14;;;;;;;44.08;25.27;;;;;;;4.36;90.48;101983.38;5109798;28;20035;-64
2021/04/19 02:02:04;;;;;;;45.17;25.92;;;;;;;4.34;91.50;101979.81;5109802;27;20028;-63
2021/04/19 02:04:48;;;;;;;45.40;24.77;;;;;;;4.40;89.58;101980.09;5103898;28;20531;-63
2021/04/19 02:07:37;;;;;;;45.88;25.95;;;;;;;4.32;91.06;101968.34;5107960;28;20466;-63
2021/04/19 02:10:15;;;;;;;45.97;26.35;;;;;;;4.19;92.97;101979.94;5059294;28;20048;-63
2021/04/19 02:12:56;;;;;;;46.90;26.92;;;;;;;4.22;91.49;101976.59;5066968;28;20040;-63
2021/04/19 02:15:32;;;;;;;44.65;27.83;;;;;;;4.07;93.62;101964.53;5067919;28;20113;-63
2021/04/19 02:18:19;;;;;;;49.17;27.75;;;;;;;3.95;95.42;101961.34;5061468;28;20025;-63
2021/04/19 02:20:48;;;;;;;45.08;27.00;;;;;;;3.99;92.76;101965.88;5067212;28;20045;-63
2021/04/19 02:23:32;;;;;;;47.05;28.20;;;;;;;3.86;96.84;101963.50;5066451;28;20119;-63
2021/04/19 02:26:02;;;;;;;47.30;27.08;;;;;;;3.79;96.99;101959.69;5061342;28;20037;-63
2021/04/19 02:28:40;;;;;;;46.50;26.75;;;;;;;3.79;95.18;101959.69;5061003;28;20087;-63
2021/04/19 02:31:10;;;;;;;46.38;28.23;;;;;;;3.74;96.99;101955.94;5048926;28;20122;-63
2021/04/19 02:33:40;;;;;;;47.33;29.15;;;;;;;3.70;98.05;101959.22;5067736;28;20041;-63
2021/04/19 02:36:08;;;;;;;48.55;27.88;;;;;;;3.66;97.48;101961.66;5065707;28;20475;-63
2021/04/19 02:38:36;;;;;;;50.03;29.50;;;;;;;3.64;99.22;101959.78;5067665;28;20407;-63
2021/04/19 02:41:03;;;;;;;49.63;29.42;;;;;;;3.70;98.89;101954.91;5064852;28;20116;-63
2021/04/19 02:43:34;;;;;;;48.08;27.63;;;;;;;3.68;98.36;101948.66;5068188;28;20407;-63
2021/04/19 02:46:01;;;;;;;46.60;28.42;;;;;;;3.70;96.59;101959.22;5047651;28;20032;-62
2021/04/19 02:48:27;;;;;;;48.10;28.05;;;;;;;3.64;98.58;101954.56;5103238;28;20016;-63
2021/04/19 02:50:53;;;;;;;48.05;28.70;;;;;;;3.58;98.96;101954.25;5110681;28;20122;-62
2021/04/19 02:53:20;;;;;;;47.35;28.42;;;;;;;3.55;100.00;101954.09;5108402;27;20026;-63
2021/04/19 02:55:47;;;;;;;48.63;29.23;;;;;;;3.49;99.63;101953.00;5109405;28;20027;-63
2021/04/19 02:58:16;;;;;;;49.95;28.42;;;;;;;3.52;97.46;101951.34;5106623;27;20023;-62
2021/04/19 03:00:47;;;;;;;48.80;27.75;;;;;;;3.46;99.06;101951.94;5105513;28;20032;-62
2021/04/19 03:03:25;;;;;;;45.33;26.33;;;;;;;3.44;98.02;101951.84;5105767;28;20084;-63
2021/04/19 03:05:52;;;;;;;44.85;26.23;;;;;;;3.47;97.38;101946.78;5106780;28;20478;-63
2021/04/19 03:08:20;;;;;;;49.08;28.80;;;;;;;3.44;100.00;101951.84;5105096;28;20480;-63
2021/04/19 03:10:57;;;;;;;49.17;29.08;;;;;;;3.53;99.11;101953.16;5105861;28;20483;-63
2021/04/19 03:13:24;;;;;;;48.70;28.02;;;;;;;3.50;99.91;101959.13;5104031;28;20028;-63
2021/04/19 03:15:53;;;;;;;46.63;27.85;;;;;;;3.52;98.01;101956.56;5106588;28;20028;-63
2021/04/19 03:18:20;;;;;;;48.95;26.38;;;;;;;3.59;95.76;101951.72;5104885;28;20028;-63
2021/04/19 03:21:04;;;;;;;45.90;27.75;;;;;;;3.49;98.06;101944.22;5105785;28;21107;-63
2021/04/19 03:23:32;;;;;;;45.38;25.90;;;;;;;3.52;97.72;101953.97;5099967;28;20052;-63
2021/04/19 03:26:00;;;;;;;45.55;25.20;;;;;;;3.57;95.33;101953.38;5099446;28;20024;-63
2021/04/19 03:28:27;;;;;;;46.83;25.27;;;;;;;3.64;94.78;101951.94;5097611;28;20031;-63
2021/04/19 03:30:52;;;;;;;44.60;24.45;;;;;;;3.67;92.92;101959.97;5104004;28;20123;-63
2021/04/19 03:33:19;;;;;;;44.28;24.75;;;;;;;3.67;92.58;101966.09;5105912;28;20479;-63
2021/04/19 03:35:46;;;;;;;40.88;25.13;;;;;;;3.67;92.03;101957.34;5105159;28;20102;-63
2021/04/19 03:38:15;;;;;;;43.33;24.73;;;;;;;3.66;91.73;101966.03;5104998;28;20061;-63
2021/04/19 03:40:41;;;;;;;42.45;24.10;;;;;;;3.63;92.24;101958.91;5105232;28;20030;-63
2021/04/19 03:43:10;;;;;;;42.22;24.15;;;;;;;3.65;91.94;101964.22;5103081;28;20051;-63
2021/04/19 03:45:38;;;;;;;40.50;23.35;;;;;;;3.66;90.82;101963.41;5105805;28;20038;-63
2021/04/19 03:48:11;;;;;;;43.28;24.00;;;;;;;3.63;90.33;101965.88;5103737;28;20028;-63
2021/04/19 03:50:41;;;;;;;41.90;23.33;;;;;;;3.59;90.71;101961.28;5105830;28;20109;-63
2021/04/19 03:53:08;;;;;;;42.10;24.60;;;;;;;3.51;91.24;101947.84;5104238;28;20027;-63
2021/04/19 03:55:34;;;;;;;45.08;26.10;;;;;;;3.38;94.29;101959.38;5106255;28;20030;-63
2021/04/19 03:58:00;;;;;;;41.33;24.95;;;;;;;3.34;94.32;101961.78;5102987;28;20028;-63
2021/04/19 04:00:28;;;;;;;41.40;23.85;;;;;;;3.35;92.83;101963.53;5098955;28;20020;-63
2021/04/19 04:02:55;;;;;;;42.17;25.05;;;;;;;3.44;93.50;101951.84;5105911;28;20015;-63
2021/04/19 04:05:21;;;;;;;41.75;24.40;;;;;;;3.46;92.60;101965.88;5103577;28;20023;-63
2021/04/19 04:07:51;;;;;;;43.40;24.30;;;;;;;3.45;92.41;101961.50;5105324;28;20431;-63
2021/04/19 04:10:21;;;;;;;41.58;25.23;;;;;;;3.42;92.63;101958.72;5103060;28;20023;-63
2021/04/19 04:12:48;;;;;;;43.33;25.33;;;;;;;3.23;95.71;101958.59;5104831;28;20513;-63
2021/04/19 04:15:13;;;;;;;44.60;27.15;;;;;;;3.10;98.19;101951.81;5104708;27;20155;-63
2021/04/19 04:17:39;;;;;;;47.15;27.17;;;;;;;2.95;99.53;101944.94;5103565;28;20495;-63
2021/04/19 04:20:05;;;;;;;44.47;25.27;;;;;;;2.94;100.00;101953.63;5105527;28;20027;-63
2021/04/19 04:22:30;;;;;;;44.03;26.10;;;;;;;3.10;97.81;101954.41;5102559;28;20028;-63
2021/04/19 04:24:56;;;;;;;47.42;27.42;;;;;;;3.03;100.00;101948.00;5105658;28;20091;-63
2021/04/19 04:27:22;;;;;;;45.90;26.33;;;;;;;3.02;100.00;101945.31;5103141;28;20093;-63
2021/04/19 04:29:47;;;;;;;48.45;29.25;;;;;;;3.11;99.95;101954.50;5104959;28;20107;-63
2021/04/19 04:32:13;;;;;;;48.85;29.75;;;;;;;3.07;100.00;101943.81;5104473;28;20040;-63
2021/04/19 04:34:39;;;;;;;52.83;31.80;;;;;;;2.99;100.00;101932.97;5103406;28;20027;-63
2021/04/19 04:37:05;;;;;;;48.75;29.73;;;;;;;2.98;100.00;101931.16;5105371;27;20116;-63
2021/04/19 04:39:30;;;;;;;48.00;26.90;;;;;;;3.10;99.92;101936.13;5102009;28;20107;-63
2021/04/19 04:41:56;;;;;;;54.65;32.63;;;;;;;3.05;100.00;101935.00;5105911;28;20032;-63
2021/04/19 04:44:26;;;;;;;49.75;28.67;;;;;;;3.02;100.00;101940.97;5102877;28;20086;-63
2021/04/19 04:47:03;;;;;;;51.65;30.88;;;;;;;3.03;100.00;101947.06;5104611;28;20042;-63
2021/04/19 04:49:36;;;;;;;49.65;30.27;;;;;;;3.05;100.00;101946.34;5098091;28;20023;-63
2021/04/19 04:52:03;;;;;;;47.95;29.95;;;;;;;3.06;99.70;101945.53;5098448;28;20052;-63
2021/04/19 04:54:31;;;;;;;49.85;29.45;;;;;;;3.10;99.70;101941.34;5098239;28;20016;-63
2021/04/19 04:57:01;;;;;;;52.17;30.38;;;;;;;3.14;99.17;101943.31;5105134;28;20019;-63
2021/04/19 04:59:28;;;;;;;49.22;29.42;;;;;;;3.21;97.98;101937.59;5101778;28;20035;-63
2021/04/19 05:01:55;;;;;;;53.28;31.55;;;;;;;3.21;98.59;101942.81;5104952;28;20382;-63
2021/04/19 05:04:21;;;;;;;49.47;30.70;;;;;;;3.29;98.24;101948.44;5102338;28;20027;-63
2021/04/19 05:06:47;;;;;;;51.65;31.83;;;;;;;3.28;99.29;101944.06;5103856;28;20028;-63
2021/04/19 05:09:13;;;;;;;51.83;31.40;;;;;;;3.34;97.98;101954.81;5103530;28;20386;-63
2021/04/19 05:11:39;;;;;;;54.88;31.67;;;;;;;3.31;98.50;101950.31;5102734;28;20028;-63
2021/04/19 05:14:05;;;;;;;52.22;32.22;;;;;;;3.34;98.00;101953.94;5103241;28;20047;-63
2021/04/19 05:16:31;;;;;;;49.05;30.58;;;;;;;3.33;97.27;101947.78;5101734;28;20379;-63
2021/04/19 05:19:01;;;;;;;49.50;30.50;;;;;;;3.37;97.21;101947.13;5097239;28;20493;-63
2021/04/19 05:21:27;;;;;;;49.28;30.65;;;;;;;3.35;96.82;101954.00;5104219;28;20537;-63
2021/04/19 05:23:53;;;;;;;49.03;29.88;;;;;;;3.33;96.49;101953.00;5102291;28;20116;-63
2021/04/19 05:26:20;;;;;;;55.40;32.20;;;;;;;3.26;98.74;101943.97;5103574;28;20077;-63
2021/04/19 05:28:46;;;;;;;53.30;32.97;;;;;;;3.19;100.00;101959.22;5102927;28;20538;-63
2021/04/19 05:31:11;;;;;;;52.20;32.22;;;;;;;3.24;99.11;101942.97;5102724;28;20027;-63
2021/04/19 05:33:37;;;;;;;53.65;33.30;;;;;;;3.22;99.71;101948.94;5103992;28;20023;-63
2021/04/19 05:36:14;;;;;;;51.90;32.45;;;;;;;3.26;98.72;101957.03;5101414;28;20095;-63
2021/04/19 05:38:43;;;;;;;56.83;35.55;;;;;;;3.25;100.00;101936.06;5103839;28;20043;-63
2021/04/19 05:41:11;;;;;;;51.85;32.42;;;;;;;3.28;99.91;101944.06;5102325;28;20024;-63
2021/04/19 05:43:37;;;;;;;54.58;33.92;;;;;;;3.34;100.00;101951.31;5103957;28;20027;-63
2021/04/19 05:46:02;;;;;;;54.60;32.63;;;;;;;3.42;98.63;101956.13;5101346;28;20036;-63
2021/04/19 05:48:28;;;;;;;52.35;33.80;;;;;;;3.43;98.60;101954.38;5104566;28;20107;-63
2021/04/19 05:50:58;;;;;;;56.58;34.13;;;;;;;3.47;98.12;101954.63;5099590;28;20683;-62
2021/04/19 05:53:24;;;;;;;55.45;33.45;;;;;;;3.52;97.84;101957.47;5103441;28;20023;-63
2021/04/19 05:55:55;;;;;;;51.50;34.15;;;;;;;3.55;97.69;101961.97;5100436;28;20013;-64
2021/04/19 05:58:28;;;;;;;56.55;33.58;;;;;;;3.65;97.48;101966.81;5098349;28;20020;-63
2021/04/19 06:01:06;;;;;;;52.90;33.75;;;;;;;3.70;96.23;101970.59;5097314;28;20112;-63
2021/04/19 06:03:44;;;;;;;53.58;33.50;;;;;;;3.77;95.97;101972.69;5094952;28;20024;-63
2021/04/19 06:06:20;;;;;;;55.58;34.40;;;;;;;3.84;95.70;101966.94;5096448;28;20028;-62
2021/04/19 06:09:14;;;;;;;53.83;33.35;;;;;;;3.94;94.21;101972.63;5097020;28;20471;-63
2021/04/19 06:11:51;;;;;;;54.97;33.83;;;;;;;4.08;95.15;101968.97;5098116;28;20020;-63
2021/04/19 06:14:20;;;;;;;50.80;33.15;;;;;;;4.19;93.87;101973.00;5096979;28;20031;-63
2021/04/19 06:16:46;;;;;;;54.95;34.03;;;;;;;4.35;93.48;101965.88;5097010;28;20032;-63
2021/04/19 06:19:14;;;;;;;56.58;33.42;;;;;;;4.49;92.18;101967.44;5096244;28;20089;-63
2021/04/19 06:21:40;;;;;;;54.60;32.53;;;;;;;4.56;91.75;101962.47;5099613;28;20028;-62
2021/04/19 06:24:07;;;;;;;52.33;33.42;;;;;;;4.60;91.98;101962.72;5095322;28;20081;-64
2021/04/19 06:26:36;;;;;;;53.17;33.30;;;;;;;4.67;91.19;101953.41;5098198;28;20486;-63
2021/04/19 06:29:03;;;;;;;54.58;33.95;;;;;;;4.74;91.08;101963.34;5099420;28;20024;-63
2021/04/19 06:31:28;;;;;;;54.72;33.70;;;;;;;4.78;91.15;101960.03;5097332;28;20027;-64
2021/04/19 06:34:03;;;;;;;52.67;33.55;;;;;;;4.79;90.28;101967.06;5100279;28;20363;-63
2021/04/19 06:36:48;;;;;;;53.10;32.92;;;;;;;4.78;90.15;101961.75;5098947;28;20028;-63
2021/04/19 06:39:16;;;;;;;56.80;33.55;;;;;;;4.79;91.28;101959.22;5099788;28;20482;-63
2021/04/19 06:41:43;;;;;;;55.33;34.53;;;;;;;4.78;91.72;101959.16;5100412;28;20028;-63
2021/04/19 06:44:09;;;;;;;56.72;34.15;;;;;;;4.81;92.00;101967.13;5100803;28;20104;-63
2021/04/19 06:46:37;;;;;;;54.85;34.90;;;;;;;4.85;92.17;101967.34;5103138;28;20482;-63
2021/04/19 06:49:03;;;;;;;56.78;35.67;;;;;;;4.86;93.28;101957.75;5106829;28;20371;-63
2021/04/19 06:51:30;;;;;;;59.80;35.50;;;;;;;4.96;92.05;101970.44;5106781;28;20482;-63
2021/04/19 06:53:57;;;;;;;54.92;34.22;;;;;;;5.11;91.02;101965.00;5105601;28;20072;-63
2021/04/19 06:56:27;;;;;;;55.83;36.85;;;;;;;5.21;90.36;101967.22;5106954;28;20020;-63
2021/04/19 06:58:55;;;;;;;53.85;36.17;;;;;;;5.30;90.72;101971.03;5107966;28;20040;-63
2021/04/19 07:01:23;;;;;;;54.75;34.80;;;;;;;5.39;89.95;101966.22;5102832;28;20036;-63
2021/04/19 07:04:00;;;;;;;53.85;33.88;;;;;;;5.51;88.69;101958.88;5108376;28;20089;-64
2021/04/19 07:06:27;;;;;;;51.03;34.70;;;;;;;5.65;88.39;101963.78;5100429;28;20032;-63
2021/04/19 07:09:00;;;;;;;54.40;33.88;;;;;;;5.78;87.46;101968.72;5102015;28;20381;-63
2021/04/19 07:11:28;;;;;;;52.65;33.60;;;;;;;5.89;86.90;101967.44;5105946;28;20055;-63
2021/04/19 07:13:54;;;;;;;53.80;33.17;;;;;;;6.01;85.96;101963.59;5100714;28;20016;-64
2021/04/19 07:16:19;;;;;;;55.17;34.15;;;;;;;6.16;85.49;101953.72;5105431;28;20360;-62
2021/04/19 07:18:44;;;;;;;53.55;33.53;;;;;;;6.32;85.43;101964.81;5100057;28;20157;-63
2021/04/19 07:21:11;;;;;;;50.53;32.13;;;;;;;6.56;84.38;101964.88;5103003;27;20028;-62
2021/04/19 07:23:36;;;;;;;52.83;31.92;;;;;;;6.78;84.01;101966.59;5102793;28;20028;-63
2021/04/19 07:26:06;;;;;;;49.30;31.52;;;;;;;7.07;83.16;101979.94;5103753;28;20374;-63
2021/04/19 07:28:36;;;;;;;49.03;30.95;;;;;;;7.28;81.44;101980.72;5099838;28;20043;-63
2021/04/19 07:31:04;;;;;;;50.70;30.75;;;;;;;7.37;80.47;101979.22;5096975;28;20485;-63
2021/04/19 07:33:35;;;;;;;47.78;29.38;;;;;;;7.33;80.30;101984.38;5101413;28;20495;-63
2021/04/19 07:36:32;;;;;;;48.50;29.98;;;;;;;7.24;80.74;101981.44;5096514;28;20386;-62
2021/04/19 07:38:59;;;;;;;46.65;29.50;;;;;;;6.96;82.92;101982.16;5099725;28;20036;-64
2021/04/19 07:41:43;;;;;;;48.53;29.70;;;;;;;6.76;83.41;101968.28;5096807;28;20069;-63
2021/04/19 07:44:09;;;;;;;54.15;31.35;;;;;;;6.46;85.25;101953.13;5097936;28;20024;-63
2021/04/19 07:46:34;;;;;;;49.00;29.88;;;;;;;6.24;86.38;101954.00;5099319;28;20066;-64
2021/04/19 07:48:59;;;;;;;50.95;30.80;;;;;;;6.13;89.00;101953.59;5102029;28;20073;-64
2021/04/19 07:51:30;;;;;;;52.30;32.13;;;;;;;6.05;89.64;101957.63;5099552;28;20048;-64
2021/04/19 07:54:10;;;;;;;51.38;31.27;;;;;;;5.97;89.34;101957.31;5100624;28;20475;-63
2021/04/19 07:56:35;;;;;;;47.83;30.98;;;;;;;5.97;90.50;101951.13;5097763;28;20031;-64
2021/04/19 07:59:30;;;;;;;53.30;32.97;;;;;;;5.99;89.34;101949.50;5099641;28;20072;-64
2021/04/19 08:02:01;;;;;;;56.72;33.53;;;;;;;5.82;92.99;101939.16;5095867;28;20044;-63
2021/04/19 08:04:28;;;;;;;56.83;35.47;;;;;;;5.59;95.88;101933.88;5102447;28;20485;-62
2021/04/19 08:06:53;;;;;;;58.38;35.33;;;;;;;5.43;99.83;101926.16;5100119;28;20387;-63
2021/04/19 08:09:28;;;;;;;67.00;39.90;;;;;;;5.35;100.00;101919.72;5099195;28;20032;-62
2021/04/19 08:11:59;;;;;;;75.13;42.20;;;;;;;5.34;100.00;101910.94;5099684;28;20374;-63
2021/04/19 08:14:31;;;;;;;76.32;43.28;;;;;;;5.33;100.00;101911.78;5096903;28;20140;-63
2021/04/19 08:17:10;;;;;;;86.72;47.70;;;;;;;5.36;100.00;101913.66;5100111;28;20028;-63
2021/04/19 08:19:41;;;;;;;89.22;49.72;;;;;;;5.44;100.00;101913.97;5102284;28;20117;-63
2021/04/19 08:22:28;;;;;;;108.88;51.63;;;;;;;5.65;100.00;101921.81;5098453;28;20032;-63
2021/04/19 08:25:19;;;;;;;106.22;55.28;;;;;;;5.99;100.00;101929.41;5098682;28;20356;-63
2021/04/19 08:28:03;;;;;;;96.20;53.42;;;;;;;6.21;100.00;101939.00;5098980;28;20020;-63
2021/04/19 08:30:28;;;;;;;98.28;53.17;;;;;;;6.42;100.00;101925.84;5097172;28;20024;-63
2021/04/19 08:32:56;;;;;;;100.82;54.92;;;;;;;6.84;100.00;101930.00;5099872;28;20020;-63
2021/04/19 08:35:22;;;;;;;83.50;49.70;;;;;;;7.02;100.00;101949.94;5100667;28;20051;-63
2021/04/19 08:37:48;;;;;;;90.05;53.30;;;;;;;7.37;100.00;101959.09;5104869;28;20027;-63
2021/04/19 08:40:16;;;;;;;85.72;51.42;;;;;;;7.58;100.00;101958.94;5102043;28;20032;-63
2021/04/19 08:42:43;;;;;;;80.07;49.13;;;;;;;7.61;100.00;101947.63;5097784;28;20525;-63
2021/04/19 08:45:09;;;;;;;80.13;48.22;;;;;;;7.72;100.00;101955.88;5104655;28;20035;-63
2021/04/19 08:47:35;;;;;;;79.47;46.80;;;;;;;7.64;100.00;101956.50;5098077;28;20097;-62
2021/04/19 08:50:04;;;;;;;76.70;47.40;;;;;;;7.62;100.00;101959.97;5100895;28;20419;-64
2021/04/19 08:52:30;;;;;;;62.42;39.60;;;;;;;7.71;100.00;101944.47;5060255;28;20037;-64
2021/04/19 08:54:56;;;;;;;69.55;43.97;;;;;;;7.92;100.00;101949.56;5054452;28;20066;-64
2021/04/19 08:57:22;;;;;;;70.65;44.03;;;;;;;8.19;100.00;101946.03;5056802;28;20071;-64
2021/04/19 08:59:49;;;;;;;72.50;44.60;;;;;;;8.33;100.00;101939.44;5058319;28;20064;-64
2021/04/19 09:02:16;;;;;;;65.97;42.70;;;;;;;8.38;100.00;101939.59;5060117;28;20074;-64
2021/04/19 09:05:02;;;;;;;64.93;43.42;;;;;;;8.32;97.80;101942.03;5059226;28;20387;-63
2021/04/19 09:07:29;;;;;;;66.85;42.90;;;;;;;8.15;96.55;101945.00;5055200;28;20033;-63
2021/04/19 09:09:55;;;;;;;61.78;41.53;;;;;;;7.94;92.09;101946.97;5064032;28;20016;-63
2021/04/19 09:12:23;;;;;;;65.65;41.20;;;;;;;7.81;96.34;101956.22;5058071;28;20029;-62
2021/04/19 09:14:49;;;;;;;73.28;45.22;;;;;;;7.92;100.00;101957.47;5063655;28;20427;-63
2021/04/19 09:17:24;;;;;;;69.65;41.13;;;;;;;8.14;96.95;101951.16;5057949;28;20103;-63
2021/04/19 09:19:58;;;;;;;75.45;46.17;;;;;;;8.19;96.58;101949.53;5059329;28;20036;-63
2021/04/19 09:22:24;;;;;;;74.43;46.42;;;;;;;8.21;97.44;101952.22;5060759;28;20475;-63
2021/04/19 09:25:09;;;;;;;69.78;45.55;;;;;;;8.22;94.23;101954.03;5059289;28;20352;-64
2021/04/19 09:27:48;;;;;;;75.95;46.08;;;;;;;8.33;96.67;101960.53;5056884;28;20021;-63
2021/04/19 09:30:19;;;;;;;70.25;45.08;;;;;;;8.41;93.96;101951.97;5059120;28;20028;-63
2021/04/19 09:32:44;;;;;;;74.75;47.13;;;;;;;8.43;95.07;101960.78;5059770;28;20055;-64
2021/04/19 09:35:38;;;;;;;71.88;45.35;;;;;;;8.38;92.24;101952.75;5060054;28;20475;-63
2021/04/19 09:38:04;;;;;;;70.43;44.13;;;;;;;8.31;93.08;101959.56;5059877;28;20119;-64
2021/04/19 09:40:30;;;;;;;70.53;44.30;;;;;;;8.36;95.66;101959.72;5058735;28;20028;-63
2021/04/19 09:42:55;;;;;;;67.00;42.90;;;;;;;8.49;93.57;101963.66;5058361;28;20069;-63
2021/04/19 09:46:06;;;;;;;69.03;45.15;;;;;;;8.53;93.79;101957.63;5056112;28;20036;-63
2021/04/19 09:48:31;;;;;;;72.30;44.47;;;;;;;8.57;95.73;101961.28;5028921;28;20029;-63
2021/04/19 09:51:02;;;;;;;67.43;41.83;;;;;;;8.51;91.81;101969.88;5038125;28;20037;-63
2021/04/19 09:53:32;;;;;;;66.15;41.97;;;;;;;8.47;94.52;101960.97;5048230;28;20040;-63
2021/04/19 09:55:57;;;;;;;71.13;43.20;;;;;;;8.36;96.35;101973.78;5048745;28;20064;-63
2021/04/19 09:58:23;;;;;;;67.70;42.45;;;;;;;8.31;95.73;101962.19;5048656;28;20021;-63
2021/04/19 10:00:56;;;;;;;69.50;44.47;;;;;;;8.33;97.63;101960.53;5049305;28;20033;-63
2021/04/19 10:03:21;;;;;;;;;;;;;;;8.25;92.97;101964.66;5049777;28;20112;-62
2021/04/19 10:05:49;;;;;;;73.40;44.63;;;;;;;8.22;98.73;101969.81;5049303;28;20020;-62
2021/04/19 10:08:16;;;;;;;75.53;45.45;;;;;;;8.25;100.00;101967.28;5052748;28;20128;-62
2021/04/19 10:10:43;;;;;;;70.85;45.60;;;;;;;8.23;99.43;101957.53;5052005;28;20718;-63
2021/04/19 10:13:09;;;;;;;73.85;46.40;;;;;;;8.23;99.77;101960.16;5052859;28;20040;-62
2021/04/19 10:15:34;;;;;;;73.60;44.97;;;;;;;8.23;98.83;101957.53;5052227;28;20041;-62
2021/04/19 10:18:10;;;;;;;73.75;46.50;;;;;;;8.15;98.96;101952.03;5053058;28;20039;-62
2021/04/19 10:20:38;;;;;;;70.68;44.85;;;;;;;8.09;99.01;101957.09;5053786;28;20028;-61
2021/04/19 10:23:14;;;;;;;69.40;44.75;;;;;;;8.07;97.95;101958.78;5056377;28;20131;-62
2021/04/19 10:25:48;;;;;;;73.63;43.58;;;;;;;8.06;100.00;101957.00;5055951;28;20357;-62
2021/04/19 10:28:31;;;;;;;72.78;44.22;;;;;;;8.02;97.32;101962.19;5057544;28;20017;-63
2021/04/19 10:31:16;;;;;;;76.07;47.13;;;;;;;8.06;99.21;101960.53;5058793;28;20475;-63
2021/04/19 10:33:44;;;;;;;75.72;44.38;;;;;;;8.13;100.00;101966.91;5058048;28;20542;-65
2021/04/19 10:36:16;;;;;;;79.32;47.33;;;;;;;8.13;100.00;101961.63;5065677;28;20484;-65
2021/04/19 10:38:46;;;;;;;78.05;45.58;;;;;;;8.22;100.00;101969.81;5062014;28;20040;-62
2021/04/19 10:41:12;;;;;;;75.57;45.58;;;;;;;8.20;100.00;101967.13;5063498;28;20036;-63
2021/04/19 10:43:38;;;;;;;75.70;46.15;;;;;;;8.14;99.50;101966.03;5065374;28;20033;-63
2021/04/19 10:46:33;;;;;;;71.13;44.22;;;;;;;8.14;98.65;101960.78;5066700;28;20502;-64
2021/04/19 10:49:00;;;;;;;70.30;43.00;;;;;;;8.19;97.17;101961.81;5065101;28;20044;-63
2021/04/19 10:51:37;;;;;;;73.60;43.55;;;;;;;8.22;96.60;101967.19;5090151;28;20126;-63
2021/04/19 10:54:05;;;;;;;71.30;43.97;;;;;;;8.24;97.16;101964.59;5104847;28;20080;-63
2021/04/19 10:56:31;;;;;;;65.93;44.30;;;;;;;8.31;96.01;101964.84;5105574;28;20020;-63
2021/04/19 10:59:01;;;;;;;71.72;45.35;;;;;;;8.39;99.50;101965.09;5101823;28;20087;-63
2021/04/19 11:01:31;;;;;;;68.38;42.58;;;;;;;8.44;97.56;101962.59;5104769;28;20076;-63
2021/04/19 11:04:00;;;;;;;73.03;45.15;;;;;;;8.51;98.54;101957.59;5098342;28;20028;-63
2021/04/19 11:06:26;;;;;;;72.70;44.47;;;;;;;8.53;97.30;101961.19;5096311;28;20024;-64
2021/04/19 11:09:15;;;;;;;71.13;45.70;;;;;;;8.59;98.54;101960.47;5096152;28;20036;-63
2021/04/19 11:11:45;;;;;;;66.03;41.55;;;;;;;8.56;93.74;101960.34;5106119;28;20424;-63
2021/04/19 11:14:26;;;;;;;63.70;41.80;;;;;;;8.46;92.96;101955.66;5101332;28;20024;-64
2021/04/19 11:17:02;;;;;;;72.35;42.95;;;;;;;8.45;95.22;101957.41;5102507;28;20024;-64
2021/04/19 11:19:30;;;;;;;70.78;44.40;;;;;;;8.51;95.11;101957.59;5101908;28;20016;-62
2021/04/19 11:21:56;;;;;;;69.07;43.13;;;;;;;8.53;93.31;101953.28;5104631;28;20047;-62
2021/04/19 11:24:21;;;;;;;69.35;42.58;;;;;;;8.51;92.91;101954.06;5103707;28;20533;-62
2021/04/19 11:26:47;;;;;;;66.90;45.15;;;;;;;8.54;94.06;101960.31;5106649;28;20059;-64
2021/04/19 11:29:33;;;;;;;69.70;43.33;;;;;;;8.57;94.35;101956.88;5101502;27;20031;-64